createdAt,value
2018-11-27T00:00:50.189Z,10.35
2018-11-27T00:15:52.564Z,10.30
2018-11-27T00:30:50.931Z,10.28
2018-11-27T00:45:52.808Z,10.30
2018-11-27T01:00:51.215Z,10.27
2018-11-27T01:15:52.663Z,10.25
2018-11-27T01:30:52.664Z,9.95
2018-11-27T01:45:54.004Z,9.69
2018-11-27T02:00:50.957Z,9.59
2018-11-27T02:15:52.843Z,9.46
2018-11-27T02:30:50.767Z,9.40
2018-11-27T02:45:53.212Z,9.30
2018-11-27T03:00:53.139Z,9.36
2018-11-27T03:15:51.554Z,9.37
2018-11-27T03:30:51.013Z,9.48
2018-11-27T03:45:51.354Z,9.55
2018-11-27T04:00:53.305Z,9.62
2018-11-27T04:15:52.846Z,9.68
2018-11-27T04:30:51.396Z,9.77
2018-11-27T04:45:50.681Z,9.78
2018-11-27T05:00:51.599Z,9.81
2018-11-27T05:15:52.591Z,9.75
2018-11-27T05:30:50.374Z,9.69
2018-11-27T05:45:51.311Z,9.67
2018-11-27T06:00:50.860Z,9.45
2018-11-27T06:15:50.665Z,9.48
2018-11-27T06:30:50.935Z,9.27
2018-11-27T06:45:53.040Z,9.17
2018-11-27T07:00:51.502Z,9.29
2018-11-27T07:15:54.031Z,9.43
2018-11-27T07:30:52.917Z,9.33
2018-11-27T07:45:55.183Z,9.56
2018-11-27T08:00:53.208Z,9.74
2018-11-27T08:15:51.106Z,9.81
2018-11-27T08:30:51.118Z,10.02
2018-11-27T08:45:50.380Z,10.04
2018-11-27T09:00:50.201Z,10.17
2018-11-27T09:15:51.288Z,9.81
2018-11-27T09:30:51.234Z,9.85
2018-11-27T09:45:50.746Z,9.87
2018-11-27T10:00:50.519Z,10.17
2018-11-27T10:15:50.901Z,10.46
2018-11-27T10:30:50.452Z,10.65
2018-11-27T10:45:49.790Z,10.78
2018-11-27T11:00:55.459Z,10.89
2018-11-27T11:15:50.194Z,10.99
2018-11-27T11:30:50.637Z,10.93
2018-11-27T11:45:51.991Z,10.74
2018-11-27T12:00:52.147Z,10.58
2018-11-27T12:15:51.840Z,10.58
2018-11-27T12:30:50.749Z,10.70
2018-11-27T12:45:51.195Z,10.35
2018-11-27T13:00:51.204Z,9.74
2018-11-27T13:15:51.568Z,9.92
2018-11-27T13:30:55.392Z,9.98
2018-11-27T13:45:50.732Z,9.92
2018-11-27T14:00:52.749Z,9.69
2018-11-27T14:15:51.323Z,9.54
2018-11-27T14:30:51.348Z,9.37
2018-11-27T14:45:52.606Z,10.81
2018-11-27T15:00:50.539Z,9.99
2018-11-27T15:15:50.480Z,9.70
2018-11-27T15:30:50.469Z,9.29
2018-11-27T15:45:50.840Z,9.17
2018-11-27T16:00:52.912Z,9.00
2018-11-27T16:15:52.878Z,8.80
2018-11-27T16:30:53.458Z,8.53
2018-11-27T17:00:54.141Z,8.24
2018-11-27T17:45:52.661Z,8.26
2018-11-27T18:00:51.440Z,8.20
2018-11-27T18:15:51.234Z,8.09
2018-11-27T18:30:54.346Z,8.06
2018-11-27T18:45:50.628Z,8.07
2018-11-27T19:00:51.441Z,8.10
2018-11-27T19:15:52.537Z,7.93
2018-11-27T19:30:52.741Z,7.86
2018-11-27T20:00:56.288Z,7.74
2018-11-27T20:30:55.492Z,7.78
2018-11-27T20:45:57.184Z,7.81
2018-11-27T21:30:54.296Z,8.22
2018-11-27T21:45:59.250Z,8.15
2018-11-27T22:00:53.529Z,8.06
2018-11-27T22:15:57.045Z,7.85
2018-11-27T22:30:52.839Z,7.71
2018-11-27T22:45:50.683Z,7.34
2018-11-27T23:00:52.595Z,7.13
2018-11-27T23:15:51.373Z,7.05
2018-11-27T23:30:53.224Z,6.81
2018-11-27T23:45:51.631Z,6.64
